Time;durP1;ratioP1;P1;durP2;ratioP2;P2;SDS_P1;SDS_P2;PMS_P1;PMS_P2;Temp;Humidity;BMP_temperature;BMP_pressure;BME280_temperature;BME280_humidity;BME280_pressure;Samples;Min_cycle;Max_cycle;Signal;HPM_P1;HPM_P2
2021/05/16 00:00:32;;;;;;;;;;;13.80;99.90;;;14.05;77.96;99884.53;4824028;29;20299;-75
2021/05/16 00:03:01;;;;;;;;;;;13.80;99.90;;;14.10;77.68;99887.88;4824329;29;19925;-75
2021/05/16 00:05:30;;;;;;;;;;;13.80;99.90;;;14.10;77.26;99883.44;4824827;29;19925;-75
2021/05/16 00:07:58;;;;;;;;;;;13.80;99.90;;;14.08;77.07;99881.75;4811520;29;19928;-75
2021/05/16 00:10:26;;;;;;;;;;;13.90;99.90;;;14.09;77.33;99883.50;4827738;29;19924;-75
2021/05/16 00:12:56;;;;;;;;;;;13.80;99.90;;;14.15;76.64;99880.63;4827438;29;20472;-76
2021/05/16 00:15:24;;;;;;;;;;;13.90;99.90;;;14.22;76.67;99882.16;4827716;29;19928;-75
2021/05/16 00:17:52;;;;;;;;;;;13.90;99.90;;;14.18;76.69;99884.06;4811358;29;19974;-75
2021/05/16 00:20:23;;;;;;;;;;;13.90;99.90;;;14.28;76.64;99881.97;4827540;29;19931;-75
2021/05/16 00:22:51;;;;;;;;;;;14.00;99.90;;;14.29;76.88;99883.69;4827298;29;20338;-75
2021/05/16 00:25:20;;;;;;;;;;;14.00;99.90;;;14.18;77.46;99878.75;4827518;29;19958;-74
2021/05/16 00:27:48;;;;;;;;;;;14.00;99.90;;;14.22;77.47;99871.50;4827163;29;19931;-76
2021/05/16 00:30:18;;;;;;;;;;;13.90;99.90;;;14.16;78.25;99880.59;4827112;29;19940;-75
2021/05/16 00:32:46;;;;;;;;;;;13.90;99.90;;;14.04;78.40;99873.03;4827343;29;20023;-76
2021/05/16 00:35:16;;;;;;;;;;;13.80;99.90;;;14.01;78.36;99885.56;4827644;29;19931;-75
2021/05/16 00:37:44;;;;;;;;;;;13.70;99.90;;;13.93;78.22;99884.94;4827225;29;19973;-75
2021/05/16 00:40:13;;;;;;;;;;;13.70;99.90;;;13.44;78.20;99790.03;4827203;29;19929;-75
2021/05/16 00:42:41;;;;;;;;;;;13.60;99.90;;;13.91;77.84;99887.66;4827111;29;19936;-75
2021/05/16 00:45:10;;;;;;;;;;;13.60;99.90;;;13.85;77.63;99879.88;4827142;29;19963;-75
2021/05/16 00:47:40;;;;;;;;;;;13.60;99.90;;;13.74;77.89;99878.50;4810790;29;19974;-75
2021/05/16 00:50:09;;;;;;;;;;;13.40;99.90;;;13.72;78.34;99881.22;4810917;29;19925;-75
2021/05/16 00:52:39;;;;;;;;;;;13.40;99.90;;;13.77;78.05;99867.75;4810669;29;19931;-75
2021/05/16 00:55:10;;;;;;;;;;;13.50;99.90;;;13.81;77.81;99878.25;4827090;29;19925;-75
2021/05/16 00:57:40;;;;;;;;;;;13.50;99.90;;;13.91;77.93;99878.81;4810883;29;20388;-75
2021/05/16 01:00:11;;;;;;;;;;;13.60;99.90;;;13.90;78.02;99871.78;4810610;29;20331;-75
2021/05/16 01:02:39;;;;;;;;;;;13.60;99.90;;;13.92;77.86;99867.22;4810603;29;20052;-74
2021/05/16 01:05:09;;;;;;;;;;;13.60;99.90;;;14.03;78.13;99875.75;4810450;29;19929;-74
2021/05/16 01:07:38;;;;;;;;;;;13.70;99.90;;;14.08;78.07;99868.47;4810538;29;19924;-75
2021/05/16 01:10:09;;;;;;;;;;;13.70;99.90;;;14.14;78.41;99865.59;4826492;29;19925;-75
2021/05/16 01:12:41;;;;;;;;;;;13.80;99.90;;;14.11;78.61;99863.06;4826715;29;19996;-75
2021/05/16 01:15:11;;;;;;;;;;;13.80;99.90;;;14.16;78.82;99861.09;4826717;29;19928;-75
2021/05/16 01:17:39;;;;;;;;;;;13.90;99.90;;;13.49;79.02;99740.31;4810169;29;20342;-75
2021/05/16 01:20:09;;;;;;;;;;;13.80;99.90;;;14.18;79.36;99860.13;4810269;29;20428;-75
2021/05/16 01:22:42;;;;;;;;;;;13.90;99.90;;;14.16;79.48;99858.44;4810193;29;20367;-75
2021/05/16 01:25:10;;;;;;;;;;;13.90;99.90;;;14.23;79.70;99862.59;4810230;29;19981;-75
2021/05/16 01:27:38;;;;;;;;;;;13.90;99.90;;;14.18;79.63;99860.13;4810180;29;19925;-75
2021/05/16 01:30:08;;;;;;;;;;;13.90;99.90;;;14.16;80.55;99853.09;4810348;29;19932;-75
2021/05/16 01:32:36;;;;;;;;;;;13.90;99.90;;;14.10;80.91;99848.88;4826340;29;20348;-77
2021/05/16 01:35:05;;;;;;;;;;;13.80;99.90;;;14.11;81.22;99853.25;4826745;29;19925;-78
2021/05/16 01:37:34;;;;;;;;;;;13.80;99.90;;;14.04;81.41;99856.19;4810010;29;19924;-77
2021/05/16 01:40:04;;;;;;;;;;;13.80;99.90;;;13.84;82.08;99858.69;4826225;29;19977;-78
2021/05/16 01:42:32;;;;;;;;;;;13.60;99.90;;;13.68;83.09;99857.44;4810028;29;19924;-78
2021/05/16 01:45:03;;;;;;;;;;;13.40;99.90;;;13.67;83.19;99864.53;4826195;29;20019;-75
2021/05/16 01:47:31;;;;;;;;;;;13.40;99.90;;;13.65;83.99;99868.16;4826134;29;19933;-77
2021/05/16 01:50:05;;;;;;;;;;;13.30;99.90;;;13.62;84.07;99852.31;4825770;29;20391;-78
2021/05/16 01:52:33;;;;;;;;;;;13.30;99.90;;;13.70;84.24;99861.81;4826017;29;19928;-77
2021/05/16 01:55:01;;;;;;;;;;;13.40;99.90;;;13.65;84.18;99855.75;4825914;29;19967;-77
2021/05/16 01:57:31;;;;;;;;;;;13.30;99.90;;;13.61;84.10;99853.25;4826087;29;19935;-77
2021/05/16 01:59:59;;;;;;;;;;;13.30;99.90;;;13.39;84.41;99847.78;4825964;29;19956;-77
2021/05/16 02:02:27;;;;;;;;;;;13.20;99.90;;;13.30;85.05;99856.91;4825881;29;19954;-78
2021/05/16 02:04:55;;;;;;;;;;;13.00;99.90;;;13.19;85.38;99856.38;4809247;29;20015;-78
2021/05/16 02:07:24;;;;;;;;;;;13.00;99.90;;;13.19;85.91;99853.72;4809476;29;19978;-78
2021/05/16 02:09:53;;;;;;;;;;;12.90;99.90;;;13.08;86.29;99855.84;4809745;29;19929;-77
2021/05/16 02:12:22;;;;;;;;;;;12.80;99.90;;;13.04;86.18;99850.66;4809291;29;20023;-78
2021/05/16 02:14:51;;;;;;;;;;;12.70;99.90;;;13.10;86.17;99851.34;4825914;29;19924;-78
2021/05/16 02:17:18;;;;;;;;;;;12.80;99.90;;;13.04;86.00;99853.31;4809351;29;19925;-78
2021/05/16 02:19:46;;;;;;;;;;;12.70;99.90;;;13.09;86.03;99854.91;4809553;29;19925;-78
2021/05/16 02:22:15;;;;;;;;;;;12.80;99.90;;;13.09;85.98;99862.88;4809205;29;19924;-79
2021/05/16 02:24:45;;;;;;;;;;;12.80;99.90;;;13.18;85.90;99859.09;4809539;29;19925;-78
2021/05/16 02:27:23;;;;;;;;;;;12.80;99.90;;;13.22;85.32;99850.94;4809477;29;19932;-79
2021/05/16 02:29:54;;;;;;;;;;;12.90;99.90;;;13.16;85.61;99852.94;4808674;29;19929;-78
2021/05/16 02:32:22;;;;;;;;;;;12.90;99.90;;;13.17;85.81;99850.25;4809019;29;19973;-80
2021/05/16 02:34:54;;;;;;;;;;;12.90;99.90;;;13.18;85.54;99851.13;4808888;29;19935;-78
2021/05/16 02:37:34;;;;;;;;;;;12.90;99.90;;;13.21;85.47;99853.66;4809057;29;19933;-78
2021/05/16 02:40:03;;;;;;;;;;;12.90;99.90;;;12.97;85.71;99819.91;4825354;29;19925;-80
2021/05/16 02:42:33;;;;;;;;;;;12.90;99.90;;;13.16;85.78;99853.78;4808850;29;19974;-80
2021/05/16 02:45:01;;;;;;;;;;;12.90;99.90;;;13.09;85.74;99852.25;4825101;29;19924;-80
2021/05/16 02:47:30;;;;;;;;;;;12.80;99.90;;;13.18;85.59;99854.63;4808782;29;19939;-77
2021/05/16 02:49:58;;;;;;;;;;;12.90;99.90;;;13.24;85.30;99859.75;4808776;29;19960;-81
2021/05/16 02:52:27;;;;;;;;;;;12.90;99.90;;;13.20;85.25;99857.25;4808688;29;20300;-80
2021/05/16 02:54:55;;;;;;;;;;;12.90;99.90;;;13.20;84.82;99860.75;4825200;29;19929;-80
2021/05/16 02:57:23;;;;;;;;;;;12.90;99.90;;;13.19;84.48;99852.84;4808653;29;19973;-80
2021/05/16 02:59:51;;;;;;;;;;;12.90;99.90;;;13.14;84.54;99852.97;4808733;29;20094;-78
2021/05/16 03:02:20;;;;;;;;;;;12.90;99.90;;;13.16;84.34;99848.47;4808719;29;19925;-80
2021/05/16 03:04:48;;;;;;;;;;;12.90;99.90;;;13.24;84.18;99851.78;4808574;29;20418;-79
2021/05/16 03:07:16;;;;;;;;;;;12.90;99.90;;;13.24;83.51;99856.25;4808539;29;19936;-77
2021/05/16 03:09:44;;;;;;;;;;;12.90;99.90;;;13.21;82.93;99851.00;4808496;29;19930;-79
2021/05/16 03:12:13;;;;;;;;;;;12.90;99.90;;;13.22;82.64;99853.59;4808661;29;19929;-78
2021/05/16 03:14:42;;;;;;;;;;;12.90;99.90;;;13.22;82.49;99858.06;4808667;29;20378;-76
2021/05/16 03:17:10;;;;;;;;;;;12.90;99.90;;;13.28;82.27;99848.09;4808395;29;20383;-79
2021/05/16 03:19:38;;;;;;;;;;;12.90;99.90;;;13.33;82.46;99848.84;4808356;29;19925;-78
2021/05/16 03:22:08;;;;;;;;;;;13.00;99.90;;;13.35;82.48;99854.97;4808375;29;19925;-78
2021/05/16 03:24:37;;;;;;;;;;;13.00;99.90;;;13.28;82.15;99829.50;4824783;29;19924;-79
2021/05/16 03:27:09;;;;;;;;;;;13.10;99.90;;;13.48;81.99;99861.63;4825100;29;19925;-79
2021/05/16 03:29:37;;;;;;;;;;;13.20;99.90;;;13.55;81.83;99868.47;4824995;29;19932;-80
2021/05/16 03:32:05;;;;;;;;;;;13.20;99.90;;;13.56;81.99;99859.59;4824617;29;19977;-78
2021/05/16 03:34:35;;;;;;;;;;;13.30;99.90;;;13.53;82.19;99857.03;4824796;29;19931;-75
2021/05/16 03:37:03;;;;;;;;;;;13.30;99.90;;;13.56;82.53;99856.94;4808127;29;19924;-73
2021/05/16 03:39:31;;;;;;;;;;;13.30;99.90;;;13.55;82.69;99855.19;4824397;29;19973;-73
2021/05/16 03:41:58;;;;;;;;;;;13.30;99.90;;;13.50;83.01;99862.44;4823955;29;19925;-74
2021/05/16 03:44:27;;;;;;;;;;;13.30;99.90;;;13.44;83.18;99853.78;4808041;29;19925;-74
2021/05/16 03:46:55;;;;;;;;;;;13.20;99.90;;;13.42;83.72;99856.50;4824474;29;19929;-74
2021/05/16 03:49:22;;;;;;;;;;;13.20;99.90;;;13.29;83.91;99857.81;4824270;29;19964;-75
2021/05/16 03:51:51;;;;;;;;;;;13.10;99.90;;;13.30;84.62;99856.91;4824433;29;19933;-75
2021/05/16 03:54:19;;;;;;;;;;;13.10;99.90;;;13.15;84.55;99825.53;4824471;29;19975;-75
2021/05/16 03:56:47;;;;;;;;;;;13.10;99.90;;;13.28;84.73;99889.72;4807980;29;19925;-75
2021/05/16 03:59:14;;;;;;;;;;;13.10;99.90;;;13.18;84.91;99841.34;4824440;29;20320;-77
2021/05/16 04:01:42;;;;;;;;;;;13.10;99.90;;;13.30;85.08;99862.22;4823856;29;19924;-77
2021/05/16 04:04:10;;;;;;;;;;;13.10;99.90;;;13.26;85.50;99867.66;4807813;29;20292;-76
2021/05/16 04:06:38;;;;;;;;;;;13.00;99.90;;;13.22;85.43;99864.22;4824066;29;19925;-76
2021/05/16 04:09:06;;;;;;;;;;;13.00;99.90;;;13.13;85.48;99868.97;4823922;29;19932;-77
2021/05/16 04:11:34;;;;;;;;;;;12.90;99.90;;;13.21;85.60;99866.94;4824098;29;20268;-77
2021/05/16 04:14:03;;;;;;;;;;;12.90;99.90;;;13.09;85.81;99873.50;4824074;29;19952;-76
2021/05/16 04:16:31;;;;;;;;;;;12.80;99.90;;;13.16;85.68;99880.34;4823927;29;19931;-77
2021/05/16 04:18:59;;;;;;;;;;;12.90;99.90;;;13.06;85.77;99876.25;4824200;29;19929;-78
2021/05/16 04:21:27;;;;;;;;;;;12.80;99.90;;;12.97;85.54;99879.13;4824156;29;19929;-75
2021/05/16 04:23:55;;;;;;;;;;;12.70;99.90;;;12.92;85.04;99880.19;4824106;29;19981;-79
2021/05/16 04:26:23;;;;;;;;;;;12.60;99.90;;;12.83;84.71;99881.34;4824129;29;19932;-77
2021/05/16 04:28:51;;;;;;;;;;;12.60;99.90;;;12.83;84.53;99885.78;4823811;29;19924;-78
2021/05/16 04:31:19;;;;;;;;;;;12.60;99.90;;;12.75;84.43;99890.44;4823983;29;19932;-77
2021/05/16 04:33:46;;;;;;;;;;;12.50;99.90;;;12.89;84.24;99893.56;4824109;29;19932;-78
2021/05/16 04:36:14;;;;;;;;;;;12.60;99.90;;;12.94;83.23;99892.50;4824064;29;19924;-78
2021/05/16 04:38:42;;;;;;;;;;;12.70;99.90;;;12.89;83.03;99894.41;4823943;29;19964;-78
2021/05/16 04:41:09;;;;;;;;;;;12.60;99.90;;;12.82;83.06;99889.34;4807619;29;19932;-69
2021/05/16 04:43:38;;;;;;;;;;;12.60;99.90;;;13.00;82.78;99891.44;4807582;29;19932;-80
2021/05/16 04:46:06;;;;;;;;;;;12.70;99.90;;;13.12;82.20;99888.47;4823957;29;19924;-80
2021/05/16 04:48:34;;;;;;;;;;;12.80;99.90;;;13.10;81.59;99896.50;4823880;29;19935;-78
2021/05/16 04:51:02;;;;;;;;;;;12.80;99.90;;;13.10;81.81;99895.59;4823811;29;19925;-80
2021/05/16 04:53:32;;;;;;;;;;;12.80;99.90;;;13.24;81.89;99902.22;4826535;29;19936;-79
2021/05/16 04:56:00;;;;;;;;;;;12.90;99.90;;;13.29;81.50;99904.75;4827035;29;20410;-80
2021/05/16 04:58:28;;;;;;;;;;;13.00;99.90;;;13.43;81.64;99903.38;4826908;29;20345;-80
2021/05/16 05:00:56;;;;;;;;;;;13.10;99.90;;;13.55;81.57;99902.13;4826961;29;19974;-79
2021/05/16 05:03:24;;;;;;;;;;;13.20;99.90;;;13.62;81.77;99902.81;4826840;29;19924;-80
2021/05/16 05:05:53;;;;;;;;;;;13.30;99.90;;;13.72;81.55;99912.25;4827160;29;19932;-79
2021/05/16 05:08:21;;;;;;;;;;;13.40;99.90;;;13.78;81.48;99915.53;4826719;29;19977;-79
2021/05/16 05:10:49;;;;;;;;;;;13.50;99.90;;;13.84;81.68;99914.50;4826751;29;19981;-80
2021/05/16 05:13:16;;;;;;;;;;;13.60;99.90;;;13.74;82.16;99905.09;4826375;29;20032;-79
2021/05/16 05:15:44;;;;;;;;;;;13.50;99.90;;;13.85;82.25;99914.44;4810420;29;19925;-80
2021/05/16 05:18:15;;;;;;;;;;;13.60;99.90;;;13.96;82.02;99914.06;4826557;29;20339;-79
2021/05/16 05:20:43;;;;;;;;;;;13.70;99.90;;;13.85;82.05;99914.44;4826387;29;19925;-79
2021/05/16 05:23:11;;;;;;;;;;;13.60;99.90;;;13.82;82.33;99914.53;4810279;29;19995;-79
2021/05/16 05:25:39;;;;;;;;;;;13.60;99.90;;;13.82;82.38;99921.66;4826487;29;20391;-79
2021/05/16 05:28:06;;;;;;;;;;;13.60;99.90;;;13.87;82.59;99909.94;4826496;29;19929;-78
2021/05/16 05:30:34;;;;;;;;;;;13.60;99.90;;;13.90;82.15;99906.31;4826724;29;19973;-79
2021/05/16 05:33:05;;;;;;;;;;;13.60;99.90;;;13.92;81.70;99912.44;4826126;29;20303;-79
2021/05/16 05:35:34;;;;;;;;;;;13.60;99.90;;;13.82;81.52;99911.03;4825957;29;19932;-79
2021/05/16 05:38:02;;;;;;;;;;;13.50;99.90;;;13.82;81.46;99914.53;4826238;29;19931;-79
2021/05/16 05:40:29;;;;;;;;;;;13.50;99.90;;;13.87;81.35;99909.06;4826318;29;20015;-79
2021/05/16 05:42:57;;;;;;;;;;;13.60;99.90;;;13.91;81.21;99908.03;4826216;29;19929;-79
2021/05/16 05:45:25;;;;;;;;;;;13.60;99.90;;;13.90;80.70;99906.31;4826227;29;19932;-79
2021/05/16 05:47:53;;;;;;;;;;;13.60;99.90;;;13.90;80.82;99911.66;4809879;29;19947;-79
2021/05/16 05:50:20;;;;;;;;;;;13.60;99.90;;;13.95;81.21;99905.25;4826104;29;20373;-79
2021/05/16 05:52:49;;;;;;;;;;;13.60;99.90;;;13.97;81.46;99907.84;4809632;29;19947;-79
2021/05/16 05:55:17;;;;;;;;;;;13.70;99.90;;;14.03;81.74;99915.63;4825846;29;20034;-79
2021/05/16 05:57:45;;;;;;;;;;;13.70;99.90;;;13.82;81.31;99890.59;4826029;29;19925;-78
2021/05/16 06:00:14;;;;;;;;;;;13.60;99.90;;;13.94;81.31;99916.78;4825675;29;19925;-78
2021/05/16 06:02:41;;;;;;;;;;;13.60;99.90;;;13.94;81.28;99910.59;4825556;29;19925;-78
2021/05/16 06:05:10;;;;;;;;;;;13.70;99.90;;;13.78;81.16;99906.72;4825099;29;19964;-79
2021/05/16 06:07:38;;;;;;;;;;;13.60;99.90;;;13.57;80.93;99879.91;4825884;29;19925;-79
2021/05/16 06:10:07;;;;;;;;;;;13.50;99.90;;;13.55;81.40;99895.03;4825682;29;19932;-79
2021/05/16 06:12:35;;;;;;;;;;;13.40;99.90;;;13.77;81.56;99911.16;4809316;29;20470;-77
2021/05/16 06:15:03;;;;;;;;;;;13.40;99.90;;;13.86;81.54;99910.84;4825739;29;20372;-78
2021/05/16 06:17:31;;;;;;;;;;;13.60;99.90;;;14.02;80.86;99908.53;4825710;29;19985;-78
2021/05/16 06:19:58;;;;;;;;;;;13.70;99.90;;;13.99;80.42;99906.00;4809273;29;19949;-78
2021/05/16 06:22:26;;;;;;;;;;;13.70;99.90;;;14.20;80.02;99907.94;4825342;29;20316;-78
2021/05/16 06:24:54;;;;;;;;;;;13.90;99.90;;;14.26;79.05;99915.69;4825629;29;19952;-78
2021/05/16 06:27:22;;;;;;;;;;;14.00;99.90;;;14.22;78.61;99920.28;4809200;29;20302;-77
2021/05/16 06:29:50;;;;;;;;;;;13.90;99.90;;;14.32;78.72;99920.84;4825261;29;20023;-78
2021/05/16 06:32:18;;;;;;;;;;;14.00;99.90;;;14.29;78.42;99912.97;4808622;29;20379;-78
2021/05/16 06:34:46;;;;;;;;;;;14.00;99.90;;;14.25;79.14;99924.59;4825606;29;20333;-78
2021/05/16 06:37:14;;;;;;;;;;;14.00;99.90;;;14.28;79.59;99924.53;4825473;29;19928;-79
2021/05/16 06:39:41;;;;;;;;;;;14.00;99.90;;;14.31;79.17;99924.41;4825637;29;19973;-80
2021/05/16 06:42:09;;;;;;;;;;;14.10;99.90;;;14.39;79.00;99938.31;4825895;29;19931;-80
2021/05/16 06:44:38;;;;;;;;;;;14.10;99.90;;;14.24;78.74;99938.81;4825712;29;20329;-80
2021/05/16 06:47:07;;;;;;;;;;;14.00;99.90;;;14.15;78.88;99939.16;4825228;29;20008;-79
2021/05/16 06:49:36;;;;;;;;;;;13.90;99.90;;;14.07;78.20;99942.03;4825488;29;19929;-79
2021/05/16 06:52:04;;;;;;;;;;;13.80;99.90;;;14.08;78.17;99940.25;4825206;29;19925;-79
2021/05/16 06:54:32;;;;;;;;;;;13.80;99.90;;;14.08;78.74;99937.59;4808409;29;19970;-79
2021/05/16 06:57:00;;;;;;;;;;;13.80;99.90;;;14.19;79.11;99946.06;4825182;29;19929;-79
2021/05/16 06:59:27;;;;;;;;;;;13.80;99.90;;;14.14;79.34;99943.59;4825256;29;19925;-81
2021/05/16 07:01:56;;;;;;;;;;;13.80;99.90;;;14.18;79.47;99934.59;4825687;29;19932;-80
2021/05/16 07:04:24;;;;;;;;;;;13.90;99.90;;;14.21;79.75;99941.56;4808643;29;19928;-78
2021/05/16 07:06:52;;;;;;;;;;;13.90;99.90;;;14.10;79.87;99943.72;4824768;29;19941;-79
2021/05/16 07:09:20;;;;;;;;;;;13.80;99.90;;;13.98;80.75;99938.81;4825484;29;19990;-78
2021/05/16 07:11:47;;;;;;;;;;;13.70;99.90;;;13.88;80.93;99934.75;4824967;29;19924;-78
2021/05/16 07:14:15;;;;;;;;;;;13.60;99.90;;;13.87;80.31;99938.31;4824881;29;19929;-77
2021/05/16 07:16:43;;;;;;;;;;;13.60;99.90;;;13.91;80.71;99940.81;4825085;29;19932;-77
2021/05/16 07:19:11;;;;;;;;;;;13.60;99.90;;;14.01;81.33;99960.00;4824903;29;19933;-78
2021/05/16 07:21:39;;;;;;;;;;;13.70;99.90;;;14.09;81.68;99945.50;4824886;29;19928;-81
2021/05/16 07:24:07;;;;;;;;;;;13.80;99.90;;;14.16;81.73;99948.84;4825232;29;19983;-75
2021/05/16 07:26:35;;;;;;;;;;;13.90;99.90;;;14.11;81.52;99951.66;4824551;29;20330;-77
2021/05/16 07:29:03;;;;;;;;;;;13.80;99.90;;;14.06;81.12;99945.63;4824916;29;20041;-77
2021/05/16 07:31:31;;;;;;;;;;;13.80;99.90;;;13.96;81.06;99951.28;4824725;29;19940;-77
2021/05/16 07:33:59;;;;;;;;;;;13.70;99.90;;;14.12;80.86;99955.19;4824608;29;20019;-77
2021/05/16 07:36:27;;;;;;;;;;;13.80;99.90;;;14.03;80.99;99944.88;4824396;29;19929;-75
2021/05/16 07:38:55;;;;;;;;;;;13.80;99.90;;;13.18;80.91;99836.03;4824610;29;19971;-79
2021/05/16 07:41:23;;;;;;;;;;;13.60;99.90;;;13.73;80.72;99943.19;4808338;29;19928;-73
2021/05/16 07:43:50;;;;;;;;;;;13.50;99.90;;;13.74;80.01;99953.81;4824112;29;20467;-80
2021/05/16 07:46:18;;;;;;;;;;;13.50;99.90;;;13.65;78.69;99950.53;4824710;29;19958;-80
2021/05/16 07:48:45;;;;;;;;;;;13.40;99.90;;;13.72;79.84;99949.44;4824424;29;19924;-79
2021/05/16 07:51:13;;;;;;;;;;;13.40;99.90;;;13.82;80.42;99950.88;4824425;29;19925;-78
2021/05/16 07:53:42;;;;;;;;;;;13.50;99.90;;;13.75;80.38;99941.34;4824129;29;20295;-79
2021/05/16 07:56:10;;;;;;;;;;;13.50;99.90;;;13.74;81.15;99952.91;4824205;29;19946;-80
2021/05/16 07:58:38;;;;;;;;;;;13.50;99.90;;;13.70;81.23;99951.28;4824241;29;19985;-77
2021/05/16 08:01:06;;;;;;;;;;;13.40;99.90;;;13.69;81.42;99955.72;4807997;29;19931;-74
2021/05/16 08:03:33;;;;;;;;;;;13.40;99.90;;;13.68;82.67;99958.44;4824154;29;19985;-74
2021/05/16 08:06:01;;;;;;;;;;;13.40;99.90;;;13.80;82.73;99958.88;4824178;29;19931;-73
2021/05/16 08:08:34;;;;;;;;;;;13.50;99.90;;;13.87;82.48;99956.91;4824251;29;19929;-78
2021/05/16 08:11:03;;;;;;;;;;;13.60;99.90;;;13.88;82.26;99953.34;4807647;29;19977;-78
2021/05/16 08:13:30;;;;;;;;;;;13.60;99.90;;;14.03;83.03;99952.84;4824065;29;19928;-76
2021/05/16 08:15:58;;;;;;;;;;;13.70;99.90;;;14.25;82.79;99952.06;4824151;29;19958;-78
2021/05/16 08:18:26;;;;;;;;;;;13.90;99.90;;;14.44;82.51;99947.00;4824235;29;19947;-77
2021/05/16 08:20:53;;;;;;;;;;;14.10;99.90;;;14.62;81.23;99943.69;4824144;29;19967;-76
2021/05/16 08:23:21;;;;;;;;;;;14.30;99.90;;;14.72;79.21;99941.56;4823956;29;20027;-76
2021/05/16 08:25:50;;;;;;;;;;;14.50;99.90;;;14.93;78.82;99952.31;4823699;29;20378;-82
2021/05/16 08:28:19;;;;;;;;;;;14.60;99.90;;;14.79;77.07;99954.59;4826964;29;19932;-80
2021/05/16 08:30:48;;;;;;;;;;;14.60;99.90;;;14.74;77.37;99955.69;4827380;29;19981;-81
2021/05/16 08:33:15;;;;;;;;;;;14.50;99.90;;;14.08;77.29;99848.06;4827156;29;19983;-79
2021/05/16 08:35:43;;;;;;;;;;;14.50;99.90;;;14.70;77.11;99956.72;4827327;29;19966;-78
2021/05/16 08:38:11;;;;;;;;;;;14.50;99.90;;;14.59;76.75;99958.91;4827266;29;19986;-80
2021/05/16 08:40:38;;;;;;;;;;;14.30;99.90;;;14.34;76.56;99951.78;4827274;29;19925;-75
2021/05/16 08:43:06;;;;;;;;;;;14.30;99.90;;;14.40;76.89;99953.38;4827213;29;20047;-79
2021/05/16 08:45:35;;;;;;;;;;;14.10;99.90;;;14.30;76.16;99950.13;4827120;29;19929;-78
2021/05/16 08:48:03;;;;;;;;;;;14.00;99.90;;;14.35;76.08;99948.22;4827137;29;19950;-80
2021/05/16 08:50:31;;;;;;;;;;;14.00;99.90;;;14.42;76.14;99959.47;4827121;29;19933;-80
2021/05/16 08:52:58;;;;;;;;;;;14.10;99.90;;;14.35;76.00;99960.63;4826924;29;20359;-79
2021/05/16 08:55:27;;;;;;;;;;;14.10;99.90;;;14.26;75.92;99950.28;4826844;29;20278;-79
2021/05/16 08:57:55;;;;;;;;;;;14.00;99.90;;;14.07;75.39;99944.69;4826847;29;19973;-78
2021/05/16 09:00:25;;;;;;;;;;;13.90;99.90;;;14.17;76.37;99956.78;4826678;29;19929;-78
2021/05/16 09:03:05;;;;;;;;;;;13.80;99.90;;;14.29;76.24;99953.75;4826717;29;19933;-79
2021/05/16 09:05:36;;;;;;;;;;;13.90;99.90;;;14.20;76.06;99945.16;4826479;29;20284;-78
2021/05/16 09:08:07;;;;;;;;;;;13.90;99.90;;;14.14;76.51;99954.22;4810517;29;19928;-78
2021/05/16 09:10:35;;;;;;;;;;;13.90;99.90;;;14.15;76.61;99955.94;4827017;29;19928;-78
2021/05/16 09:13:11;;;;;;;;;;;13.90;99.90;;;14.22;76.78;99964.59;4810057;29;19925;-77
2021/05/16 09:15:39;;;;;;;;;;;13.90;99.90;;;14.20;76.47;99951.38;4826465;29;20057;-79
2021/05/16 09:18:07;;;;;;;;;;;13.90;99.90;;;14.29;76.66;99964.38;4826558;29;20329;-78
2021/05/16 09:20:35;;;;;;;;;;;14.00;99.90;;;14.27;76.20;99959.97;4810328;29;20268;-78
2021/05/16 09:23:03;;;;;;;;;;;14.00;99.90;;;14.35;75.94;99964.16;4826556;29;19924;-79
2021/05/16 09:25:31;;;;;;;;;;;14.00;99.90;;;14.59;76.67;99961.56;4826530;29;19928;-74
2021/05/16 09:28:12;;;;;;;;;;;14.30;99.90;;;14.79;76.05;99938.63;4826449;29;19960;-76
2021/05/16 09:30:41;;;;;;;;;;;14.60;99.90;;;14.95;74.93;99960.25;4810400;29;19925;-78
2021/05/16 09:33:13;;;;;;;;;;;14.70;99.90;;;14.92;73.19;99968.38;4826519;29;19924;-76
2021/05/16 09:35:43;;;;;;;;;;;14.70;99.90;;;14.91;72.73;99964.81;4826414;29;19932;-74
2021/05/16 09:38:16;;;;;;;;;;;14.70;99.90;;;15.14;74.35;99958.63;4826575;29;19968;-77
2021/05/16 09:40:46;;;;;;;;;;;14.80;99.90;;;15.27;73.24;99962.59;4826010;29;19925;-76
2021/05/16 09:43:21;;;;;;;;;;;15.00;99.90;;;15.04;72.75;99936.81;4826188;29;19925;-75
2021/05/16 09:45:55;;;;;;;;;;;15.00;99.90;;;15.27;71.81;99974.09;4826414;29;19925;-76
2021/05/16 09:48:42;;;;;;;;;;;15.00;99.90;;;15.30;71.44;99968.66;4826136;29;19936;-75
2021/05/16 09:51:14;;;;;;;;;;;15.10;99.90;;;15.35;71.56;99968.47;4826165;29;19929;-76
2021/05/16 09:54:04;;;;;;;;;;;15.10;99.90;;;15.50;71.94;99967.06;4825547;29;19933;-72
2021/05/16 09:56:34;;;;;;;;;;;15.20;99.90;;;15.52;70.81;99965.22;4825995;29;19935;-73
2021/05/16 09:59:04;;;;;;;;;;;15.30;99.90;;;15.46;70.19;99965.44;4826033;29;19935;-71
2021/05/16 10:01:32;;;;;;;;;;;15.30;99.90;;;15.51;70.17;99961.66;4825667;29;19929;-71
2021/05/16 10:04:02;;;;;;;;;;;15.30;99.90;;;15.36;69.87;99946.25;4825644;29;20004;-75
2021/05/16 10:06:31;;;;;;;;;;;15.30;99.90;;;15.47;70.06;99970.72;4825968;29;19947;-73
2021/05/16 10:08:58;;;;;;;;;;;15.30;99.90;;;15.49;70.16;99971.53;4825806;29;19985;-78
2021/05/16 10:11:28;;;;;;;;;;;15.20;99.90;;;15.47;70.23;99959.19;4825760;29;19981;-81
2021/05/16 10:14:02;;;;;;;;;;;15.20;99.90;;;15.52;70.65;99959.88;4825948;29;19974;-81
2021/05/16 10:16:33;;;;;;;;;;;15.20;99.90;;;15.62;70.97;99959.44;4825902;29;19931;-78
2021/05/16 10:19:02;;;;;;;;;;;15.30;99.90;;;15.83;71.30;99963.06;4809327;29;20333;-80
2021/05/16 10:21:30;;;;;;;;;;;15.50;99.90;;;15.77;68.16;99956.19;4826009;29;19971;-80
2021/05/16 10:24:08;;;;;;;;;;;15.50;99.90;;;16.05;69.90;99964.78;4825665;29;19979;-80
2021/05/16 10:26:37;;;;;;;;;;;15.70;99.90;;;16.13;68.86;99956.47;4825592;29;19925;-80
2021/05/16 10:29:06;;;;;;;;;;;15.90;99.90;;;16.25;68.45;99953.28;4825763;29;19929;-79
2021/05/16 10:31:52;;;;;;;;;;;16.00;99.90;;;16.27;68.12;99948.75;4808884;29;20359;-79
2021/05/16 10:34:44;;;;;;;;;;;16.00;99.90;;;16.32;66.86;99951.25;4808650;29;19929;-79
2021/05/16 10:37:40;;;;;;;;;;;16.10;99.90;;;16.42;66.73;99957.91;4825547;29;19967;-79
2021/05/16 10:40:23;;;;;;;;;;;16.20;99.90;;;16.44;66.91;99940.03;4825530;29;19929;-81
2021/05/16 10:42:53;;;;;;;;;;;16.30;99.90;;;16.02;66.07;99846.69;4825491;29;19932;-79
2021/05/16 10:45:23;;;;;;;;;;;16.40;99.90;;;16.59;66.03;99956.28;4825139;29;19928;-79
2021/05/16 10:47:56;;;;;;;;;;;16.40;99.90;;;16.63;65.30;99955.22;4825375;29;19960;-80
2021/05/16 10:50:58;;;;;;;;;;;16.40;99.90;;;16.64;64.30;99966.78;4824670;29;19963;-80
2021/05/16 10:53:31;;;;;;;;;;;16.40;99.90;;;16.45;64.78;99958.66;4808638;29;19925;-81
2021/05/16 10:56:10;;;;;;;;;;;16.30;99.90;;;16.41;65.26;99959.72;4824637;29;19932;-78
2021/05/16 10:58:46;;;;;;;;;;;16.20;99.90;;;16.45;65.64;99957.78;4808692;29;19924;-76
2021/05/16 11:01:15;;;;;;;;;;;16.20;99.90;;;16.63;66.01;99952.53;4824857;29;19925;-78
2021/05/16 11:03:55;;;;;;;;;;;16.30;99.90;;;16.52;65.60;99928.13;4824803;29;19925;-79
2021/05/16 11:06:24;;;;;;;;;;;16.40;99.90;;;16.70;64.80;99962.06;4825033;29;20012;-81
2021/05/16 11:09:02;;;;;;;;;;;16.40;99.90;;;16.51;64.75;99947.72;4824923;29;19989;-78
2021/05/16 11:11:34;;;;;;;;;;;16.40;99.90;;;16.62;64.30;99949.94;4824873;29;20324;-78
2021/05/16 11:14:02;;;;;;;;;;;16.40;99.90;;;15.94;63.04;99854.16;4824666;29;20027;-78
2021/05/16 11:16:30;;;;;;;;;;;16.30;99.90;;;16.19;64.34;99965.09;4808201;29;20027;-79
2021/05/16 11:18:58;;;;;;;;;;;16.00;99.90;;;16.32;64.08;99952.09;4824405;29;19960;-79
2021/05/16 11:21:26;;;;;;;;;;;16.10;99.90;;;16.25;63.82;99962.19;4808218;29;19977;-78
2021/05/16 11:23:54;;;;;;;;;;;16.00;99.90;;;16.36;63.65;99950.16;4824864;29;19929;-77
2021/05/16 11:26:23;;;;;;;;;;;16.20;99.90;;;16.39;63.01;99958.06;4824575;29;19960;-78